createdAt,value
2023-03-22T00:00:35.684Z,34.20
2023-03-22T00:03:27.705Z,32.60
2023-03-22T00:06:04.873Z,34.60
2023-03-22T00:08:41.782Z,33.50
2023-03-22T00:11:18.999Z,33.50
2023-03-22T00:13:55.370Z,34.50
2023-03-22T00:16:31.910Z,33.40
2023-03-22T00:19:08.417Z,34.60
2023-03-22T00:21:44.876Z,35.80
2023-03-22T00:24:21.833Z,36.00
2023-03-22T00:26:58.835Z,33.80
2023-03-22T00:29:35.084Z,32.80
2023-03-22T00:32:12.216Z,34.30
2023-03-22T00:34:49.086Z,34.20
2023-03-22T00:37:27.972Z,33.40
2023-03-22T00:40:04.760Z,34.60
2023-03-22T00:42:42.441Z,34.80
2023-03-22T00:45:19.385Z,34.10
2023-03-22T00:47:56.014Z,32.10
2023-03-22T00:50:32.703Z,34.60
2023-03-22T00:53:09.066Z,34.90
2023-03-22T00:55:45.625Z,37.50
2023-03-22T00:58:22.195Z,34.60
2023-03-22T01:00:58.597Z,37.30
2023-03-22T01:03:38.886Z,36.60
2023-03-22T01:06:16.644Z,35.80
2023-03-22T01:08:55.310Z,37.50
2023-03-22T01:11:31.981Z,38.00
2023-03-22T01:14:09.787Z,38.70
2023-03-22T01:16:46.364Z,40.10
2023-03-22T01:19:23.409Z,41.90
2023-03-22T01:22:00.634Z,39.90
2023-03-22T01:24:37.421Z,39.60
2023-03-22T01:27:13.816Z,40.30
2023-03-22T01:29:50.792Z,42.40
2023-03-22T01:32:27.116Z,41.30
2023-03-22T01:35:03.379Z,39.90
2023-03-22T01:37:39.818Z,40.30
2023-03-22T01:40:19.749Z,42.50
2023-03-22T01:42:57.609Z,41.30
2023-03-22T01:45:46.064Z,42.30
2023-03-22T01:48:31.425Z,41.20
2023-03-22T01:51:15.019Z,40.40
2023-03-22T01:54:36.534Z,37.70
2023-03-22T01:57:19.749Z,39.80
2023-03-22T01:59:56.335Z,39.70
2023-03-22T02:02:52.603Z,37.80
2023-03-22T02:05:38.182Z,38.20
2023-03-22T02:08:15.246Z,37.90
2023-03-22T02:11:22.875Z,38.60
2023-03-22T02:14:34.099Z,36.70
2023-03-22T02:17:51.455Z,39.10
2023-03-22T02:21:31.282Z,35.10
2023-03-22T02:25:24.730Z,39.00
2023-03-22T02:28:36.551Z,32.30
2023-03-22T02:34:57.382Z,31.40
2023-03-22T02:38:18.770Z,32.90
2023-03-22T02:41:04.086Z,30.40
2023-03-22T02:43:52.661Z,32.10
2023-03-22T02:46:40.090Z,40.70
2023-03-22T02:49:32.238Z,36.70
2023-03-22T02:55:05.878Z,37.60
2023-03-22T02:57:54.007Z,34.90
2023-03-22T03:00:32.407Z,32.50
2023-03-22T03:03:15.075Z,31.70
2023-03-22T03:05:58.778Z,35.60
2023-03-22T03:08:36.266Z,34.10
2023-03-22T03:11:14.219Z,38.60
2023-03-22T03:13:52.980Z,37.90
2023-03-22T03:16:36.821Z,35.40
2023-03-22T03:19:27.589Z,35.90
2023-03-22T03:22:18.793Z,35.70
2023-03-22T03:25:03.596Z,37.00
2023-03-22T03:27:49.931Z,36.40
2023-03-22T03:30:39.150Z,36.70
2023-03-22T03:33:25.174Z,38.90
2023-03-22T03:36:08.293Z,34.10
2023-03-22T03:38:52.210Z,35.70
2023-03-22T03:41:33.151Z,34.20
2023-03-22T03:44:10.543Z,38.30
2023-03-22T03:46:49.274Z,35.50
2023-03-22T03:49:27.405Z,38.00
2023-03-22T03:52:05.603Z,39.70
2023-03-22T03:54:42.832Z,35.10
2023-03-22T03:57:23.874Z,35.80
2023-03-22T04:00:00.154Z,37.30
2023-03-22T04:02:55.047Z,34.20
2023-03-22T04:05:56.179Z,35.10
2023-03-22T04:08:33.029Z,34.40
2023-03-22T04:11:10.404Z,35.00
2023-03-22T04:13:48.317Z,35.30
2023-03-22T04:16:26.465Z,35.30
2023-03-22T04:19:03.192Z,33.30
2023-03-22T04:21:39.533Z,33.10
2023-03-22T04:24:17.206Z,38.00
2023-03-22T04:26:54.927Z,37.60
2023-03-22T04:29:36.476Z,35.30
2023-03-22T04:32:27.220Z,33.90
2023-03-22T04:35:05.966Z,34.00
2023-03-22T04:37:43.142Z,33.70
2023-03-22T04:40:26.664Z,32.50
2023-03-22T04:43:13.720Z,33.50
2023-03-22T04:45:58.537Z,32.00
2023-03-22T04:48:42.202Z,33.60
2023-03-22T04:51:20.065Z,31.80
2023-03-22T04:54:43.259Z,32.00
2023-03-22T04:57:19.940Z,33.90
2023-03-22T04:59:57.471Z,32.00
2023-03-22T05:02:33.869Z,35.00
2023-03-22T05:05:12.178Z,32.80
2023-03-22T05:07:49.865Z,32.20
2023-03-22T05:10:26.118Z,32.60
2023-03-22T05:13:02.628Z,31.60
2023-03-22T05:15:49.782Z,31.00
2023-03-22T05:18:28.054Z,30.80
2023-03-22T05:21:11.813Z,30.40
2023-03-22T05:23:51.478Z,29.40
2023-03-22T05:26:30.083Z,27.30
2023-03-22T05:29:06.537Z,27.60
2023-03-22T05:31:55.808Z,28.10
2023-03-22T05:34:35.994Z,26.70
2023-03-22T05:37:23.664Z,26.60
2023-03-22T05:40:05.374Z,26.40
2023-03-22T05:42:45.642Z,25.80
2023-03-22T05:45:29.634Z,26.50
2023-03-22T05:48:18.957Z,26.10
2023-03-22T05:50:55.665Z,27.90
2023-03-22T05:53:33.229Z,28.00
2023-03-22T05:56:24.394Z,26.70
2023-03-22T05:59:04.293Z,27.10
2023-03-22T06:01:41.232Z,28.70
2023-03-22T06:04:27.532Z,27.80
2023-03-22T06:07:06.672Z,28.10
2023-03-22T06:09:52.404Z,27.80
2023-03-22T06:12:31.674Z,25.70
2023-03-22T06:15:25.137Z,26.10
2023-03-22T06:18:16.637Z,24.40
2023-03-22T06:20:55.264Z,27.40
2023-03-22T06:23:33.056Z,28.30
2023-03-22T06:26:11.470Z,26.20
2023-03-22T06:28:48.108Z,26.30
2023-03-22T06:31:24.580Z,23.10
2023-03-22T06:34:12.363Z,24.20
2023-03-22T06:36:51.149Z,24.10
2023-03-22T06:39:42.071Z,25.80
2023-03-22T06:42:18.615Z,25.70
2023-03-22T06:44:56.575Z,26.30
2023-03-22T06:47:39.229Z,24.90
2023-03-22T06:50:40.327Z,27.10
2023-03-22T06:53:21.579Z,28.30
2023-03-22T06:55:58.520Z,26.00
2023-03-22T06:58:35.026Z,26.60
2023-03-22T07:01:11.936Z,25.40
2023-03-22T07:03:48.658Z,29.30
2023-03-22T07:06:26.650Z,27.80
2023-03-22T07:09:04.031Z,26.00
2023-03-22T07:11:43.354Z,25.00
2023-03-22T07:14:19.790Z,25.60
2023-03-22T07:17:16.464Z,25.60
2023-03-22T07:19:53.649Z,27.00
2023-03-22T07:22:32.205Z,25.40
2023-03-22T07:25:11.674Z,22.70
2023-03-22T07:27:48.385Z,23.60
2023-03-22T07:30:25.308Z,24.20
2023-03-22T07:33:01.852Z,22.40
2023-03-22T07:35:39.069Z,23.90
2023-03-22T07:38:15.783Z,23.70
2023-03-22T07:40:55.986Z,22.20
2023-03-22T07:43:47.316Z,23.20
2023-03-22T07:46:47.658Z,23.70
2023-03-22T07:49:33.380Z,22.10
2023-03-22T07:52:16.842Z,21.70
2023-03-22T07:54:53.137Z,21.10
2023-03-22T07:57:29.429Z,21.50
2023-03-22T08:00:12.105Z,21.40
2023-03-22T08:03:03.974Z,20.00
2023-03-22T08:06:08.260Z,22.30
2023-03-22T08:08:44.675Z,28.10
2023-03-22T08:11:21.144Z,21.80
2023-03-22T08:13:57.612Z,22.70
2023-03-22T08:16:34.078Z,22.40
2023-03-22T08:19:11.532Z,22.10
2023-03-22T08:21:48.097Z,21.20
2023-03-22T08:24:36.893Z,21.10
2023-03-22T08:27:16.452Z,22.20
2023-03-22T08:29:59.200Z,22.00
2023-03-22T08:32:37.488Z,23.70
2023-03-22T08:35:16.024Z,22.10
2023-03-22T08:37:56.589Z,24.10
2023-03-22T08:40:36.532Z,23.50
2023-03-22T08:43:13.518Z,22.90
2023-03-22T08:45:50.511Z,23.60
2023-03-22T08:48:30.877Z,22.70
2023-03-22T08:51:23.839Z,21.20
2023-03-22T08:54:10.110Z,22.00
2023-03-22T08:57:39.116Z,21.30
2023-03-22T09:01:03.898Z,20.80
2023-03-22T09:03:46.527Z,22.10
2023-03-22T09:06:23.272Z,22.50
2023-03-22T09:09:00.059Z,22.90
2023-03-22T09:11:37.409Z,21.90
2023-03-22T09:14:15.135Z,21.20
2023-03-22T09:16:52.006Z,21.90
2023-03-22T09:19:28.754Z,21.10
2023-03-22T09:22:05.262Z,20.90
2023-03-22T09:24:49.195Z,19.30
2023-03-22T09:27:25.958Z,21.20
2023-03-22T09:30:02.531Z,19.30
2023-03-22T09:32:41.560Z,18.70
2023-03-22T09:35:19.693Z,18.20
2023-03-22T09:38:06.780Z,18.20
2023-03-22T09:41:00.590Z,18.40
2023-03-22T09:43:43.745Z,18.40
2023-03-22T09:46:31.578Z,17.40
2023-03-22T09:49:15.355Z,18.10
2023-03-22T09:51:54.884Z,16.90
2023-03-22T09:54:39.596Z,16.70
2023-03-22T09:57:30.504Z,16.40
2023-03-22T10:00:23.424Z,16.90
2023-03-22T10:03:21.131Z,15.70
2023-03-22T10:06:07.444Z,16.00
2023-03-22T10:09:00.593Z,15.50
2023-03-22T10:11:48.494Z,13.20
2023-03-22T10:14:39.327Z,12.00
2023-03-22T10:17:25.068Z,13.80
2023-03-22T10:20:09.927Z,14.40
2023-03-22T10:22:51.622Z,14.30
2023-03-22T10:25:38.250Z,14.10
2023-03-22T10:28:28.088Z,13.10
2023-03-22T10:31:06.014Z,13.00
2023-03-22T10:33:50.627Z,12.20
2023-03-22T10:36:35.031Z,13.10
2023-03-22T10:39:24.938Z,12.80
2023-03-22T10:42:06.782Z,10.80
2023-03-22T10:44:51.879Z,10.70
2023-03-22T10:47:41.498Z,10.80
2023-03-22T10:50:28.709Z,11.60
2023-03-22T10:53:12.844Z,16.00
2023-03-22T10:55:49.674Z,11.10
2023-03-22T10:58:32.396Z,10.90
2023-03-22T11:01:14.425Z,10.80
2023-03-22T11:03:57.253Z,9.50
2023-03-22T11:06:39.395Z,9.00
2023-03-22T11:09:23.549Z,8.30
2023-03-22T11:12:02.404Z,9.40
2023-03-22T11:14:45.482Z,10.40
2023-03-22T11:17:27.135Z,11.40
2023-03-22T11:22:48.175Z,10.80
2023-03-22T11:25:32.510Z,9.50
2023-03-22T11:28:23.392Z,7.10
2023-03-22T11:31:11.668Z,8.20
2023-03-22T11:34:02.414Z,6.50
2023-03-22T11:36:54.753Z,6.20
2023-03-22T11:39:37.130Z,5.80
2023-03-22T11:42:23.642Z,11.80
2023-03-22T11:45:00.709Z,8.30
2023-03-22T11:47:41.622Z,5.80
2023-03-22T11:50:33.433Z,6.50
2023-03-22T11:53:17.882Z,6.00
2023-03-22T11:55:58.416Z,6.70
2023-03-22T11:58:55.788Z,6.10
2023-03-22T12:01:45.855Z,7.00
2023-03-22T12:04:30.832Z,6.80
2023-03-22T12:07:15.828Z,7.10
2023-03-22T12:10:01.456Z,6.80
2023-03-22T12:12:45.757Z,6.80
2023-03-22T12:15:28.944Z,6.90
2023-03-22T12:18:13.961Z,7.30
2023-03-22T12:20:57.239Z,8.00
2023-03-22T12:23:36.570Z,10.00
2023-03-22T12:26:21.580Z,7.90
2023-03-22T12:29:03.671Z,8.20
2023-03-22T12:31:52.551Z,8.40
2023-03-22T12:34:41.201Z,7.30
2023-03-22T12:37:28.019Z,7.20
2023-03-22T12:40:19.535Z,7.40
2023-03-22T12:43:11.808Z,7.00
2023-03-22T12:45:54.632Z,7.20
2023-03-22T12:48:40.873Z,7.10
2023-03-22T12:51:18.839Z,7.10
2023-03-22T12:53:59.979Z,7.10
2023-03-22T12:56:44.744Z,7.00
2023-03-22T12:59:28.219Z,7.10
2023-03-22T13:02:18.507Z,7.30
2023-03-22T13:05:01.069Z,30.40
2023-03-22T13:07:58.995Z,8.40
2023-03-22T13:11:05.313Z,7.30
2023-03-22T13:13:50.003Z,6.60
2023-03-22T13:17:00.800Z,7.10
2023-03-22T13:19:52.539Z,6.50
2023-03-22T13:23:11.206Z,7.20
2023-03-22T13:26:06.781Z,6.30
2023-03-22T13:28:44.010Z,7.00
2023-03-22T13:31:45.207Z,6.60
2023-03-22T13:34:33.970Z,6.40
2023-03-22T13:37:31.721Z,6.70
2023-03-22T13:40:25.100Z,6.30
2023-03-22T13:43:24.499Z,6.20
2023-03-22T13:46:50.789Z,6.80
2023-03-22T13:49:59.748Z,6.40
2023-03-22T13:52:45.854Z,6.20
2023-03-22T13:55:58.357Z,5.70
2023-03-22T13:58:56.206Z,5.70
2023-03-22T14:01:39.032Z,5.10
2023-03-22T14:04:22.978Z,7.40
2023-03-22T14:07:19.683Z,6.60
2023-03-22T14:10:01.533Z,4.90
2023-03-22T14:12:55.318Z,4.80
2023-03-22T14:15:37.363Z,4.60
2023-03-22T14:18:25.958Z,4.00
2023-03-22T14:21:09.469Z,3.70
